createdAt,value
2023-01-03T00:01:52.454Z,5.68
2023-01-03T00:03:56.138Z,5.63
2023-01-03T00:05:57.668Z,5.57
2023-01-03T00:07:59.115Z,5.54
2023-01-03T00:10:08.315Z,5.52
2023-01-03T00:12:30.425Z,5.51
2023-01-03T00:14:35.545Z,5.48
2023-01-03T00:16:37.145Z,5.45
2023-01-03T00:18:38.617Z,5.46
2023-01-03T00:20:40.077Z,5.45
2023-01-03T00:22:41.591Z,5.43
2023-01-03T00:24:44.485Z,5.42
2023-01-03T00:26:46.495Z,5.42
2023-01-03T00:28:47.933Z,5.41
2023-01-03T00:30:49.470Z,5.39
2023-01-03T00:32:50.980Z,5.36
2023-01-03T00:34:52.550Z,5.36
2023-01-03T00:36:54.573Z,5.34
2023-01-03T00:38:56.657Z,5.32
2023-01-03T00:41:09.992Z,5.30
2023-01-03T00:43:29.421Z,5.28
2023-01-03T00:45:35.055Z,5.25
2023-01-03T00:47:37.037Z,5.23
2023-01-03T00:49:38.493Z,5.23
2023-01-03T00:51:41.640Z,5.19
2023-01-03T00:53:45.651Z,5.16
2023-01-03T00:55:47.460Z,5.13
2023-01-03T00:57:48.910Z,5.09
2023-01-03T00:59:50.470Z,5.09
2023-01-03T01:01:54.214Z,5.10
2023-01-03T01:04:03.087Z,5.11
2023-01-03T01:06:14.988Z,5.05
2023-01-03T01:08:16.476Z,5.03
2023-01-03T01:10:19.616Z,5.02
2023-01-03T01:12:21.091Z,5.01
2023-01-03T01:14:24.673Z,4.98
2023-01-03T01:16:30.097Z,5.00
2023-01-03T01:18:32.022Z,4.99
2023-01-03T01:20:33.465Z,4.97
2023-01-03T01:22:35.250Z,4.99
2023-01-03T01:24:36.792Z,4.97
2023-01-03T01:26:38.707Z,4.96
2023-01-03T01:28:40.443Z,4.96
2023-01-03T01:30:42.100Z,4.99
2023-01-03T01:32:43.620Z,4.97
2023-01-03T01:34:45.109Z,4.97
2023-01-03T01:36:47.329Z,4.97
2023-01-03T01:38:59.872Z,4.97
2023-01-03T01:41:01.842Z,4.93
2023-01-03T01:43:39.278Z,4.88
2023-01-03T01:45:40.855Z,4.88
2023-01-03T01:47:53.513Z,4.87
2023-01-03T01:50:01.312Z,4.81
2023-01-03T01:52:03.469Z,4.82
2023-01-03T01:54:06.939Z,4.82
2023-01-03T01:56:18.960Z,4.81
2023-01-03T01:58:23.009Z,4.79
2023-01-03T02:00:24.474Z,4.80
2023-01-03T02:02:27.416Z,4.81
2023-01-03T02:04:33.865Z,4.83
2023-01-03T02:06:35.606Z,4.82
2023-01-03T02:08:37.402Z,4.81
2023-01-03T02:10:44.783Z,4.82
2023-01-03T02:13:18.942Z,4.82
2023-01-03T02:15:32.771Z,4.81
2023-01-03T02:17:46.173Z,4.79
2023-01-03T02:19:53.588Z,4.79
2023-01-03T02:22:15.413Z,4.78
2023-01-03T02:24:54.599Z,4.76
2023-01-03T02:27:28.229Z,4.76
2023-01-03T02:29:54.349Z,4.74
2023-01-03T02:32:17.763Z,4.72
2023-01-03T02:34:34.563Z,4.70
2023-01-03T02:36:56.931Z,4.70
2023-01-03T02:38:58.347Z,4.68
2023-01-03T02:41:38.243Z,4.67
2023-01-03T02:44:22.735Z,4.65
2023-01-03T02:46:54.477Z,4.64
2023-01-03T02:49:02.089Z,4.62
2023-01-03T02:51:08.690Z,4.59
2023-01-03T02:53:15.175Z,4.58
2023-01-03T02:55:21.747Z,4.56
2023-01-03T02:57:39.371Z,4.57
2023-01-03T02:59:49.453Z,4.53
2023-01-03T03:01:52.585Z,4.52
2023-01-03T03:03:56.874Z,4.49
2023-01-03T03:06:10.463Z,4.49
2023-01-03T03:08:11.975Z,4.45
2023-01-03T03:10:32.281Z,4.44
2023-01-03T03:12:55.753Z,4.42
2023-01-03T03:14:58.602Z,4.39
2023-01-03T03:17:05.691Z,4.38
2023-01-03T03:19:39.581Z,4.37
2023-01-03T03:21:59.969Z,4.36
2023-01-03T03:24:30.468Z,4.33
2023-01-03T03:26:39.001Z,4.30
2023-01-03T03:28:44.353Z,4.31
2023-01-03T03:30:50.381Z,4.30
2023-01-03T03:32:55.963Z,4.26
2023-01-03T03:34:59.557Z,4.24
2023-01-03T03:37:16.807Z,4.25
2023-01-03T03:39:37.349Z,4.22
2023-01-03T03:42:12.899Z,4.19
2023-01-03T03:44:44.650Z,4.15
2023-01-03T03:46:55.105Z,4.12
2023-01-03T03:49:24.139Z,4.12
2023-01-03T03:51:31.260Z,4.10
2023-01-03T03:53:35.547Z,4.07
2023-01-03T03:55:41.637Z,4.06
2023-01-03T03:57:55.771Z,4.06
2023-01-03T04:00:05.293Z,4.01
2023-01-03T04:02:08.643Z,3.96
2023-01-03T04:04:15.513Z,3.96
2023-01-03T04:06:28.239Z,3.93
2023-01-03T04:08:29.872Z,3.91
2023-01-03T04:10:37.202Z,3.89
2023-01-03T04:12:39.194Z,3.90
2023-01-03T04:14:40.722Z,3.89
2023-01-03T04:16:42.296Z,3.87
2023-01-03T04:18:43.811Z,3.85
2023-01-03T04:20:45.274Z,3.82
2023-01-03T04:22:46.812Z,3.83
2023-01-03T04:24:48.291Z,3.83
2023-01-03T04:26:49.847Z,3.83
2023-01-03T04:28:51.312Z,3.81
2023-01-03T04:30:52.812Z,3.78
2023-01-03T04:32:54.270Z,3.75
2023-01-03T04:34:55.780Z,3.73
2023-01-03T04:36:57.318Z,3.68
2023-01-03T04:38:58.797Z,3.64
2023-01-03T04:41:08.296Z,3.60
2023-01-03T04:43:49.285Z,3.53
2023-01-03T04:45:51.212Z,3.44
2023-01-03T04:47:53.377Z,3.41
2023-01-03T04:49:54.820Z,3.38
2023-01-03T04:51:56.259Z,3.37
2023-01-03T04:53:57.858Z,3.34
2023-01-03T04:55:59.395Z,3.33
2023-01-03T04:58:01.104Z,3.29
2023-01-03T05:00:02.791Z,3.26
2023-01-03T05:02:04.724Z,3.25
2023-01-03T05:04:06.387Z,3.23
2023-01-03T05:06:09.219Z,3.21
2023-01-03T05:08:12.321Z,3.18
2023-01-03T05:10:13.911Z,3.15
2023-01-03T05:12:15.433Z,3.13
2023-01-03T05:14:16.926Z,3.10
2023-01-03T05:16:18.447Z,3.11
2023-01-03T05:18:20.003Z,3.10
2023-01-03T05:20:41.127Z,3.09
2023-01-03T05:23:01.080Z,3.09
2023-01-03T05:25:21.055Z,3.08
2023-01-03T05:27:22.747Z,3.08
2023-01-03T05:29:24.284Z,3.07
2023-01-03T05:31:25.807Z,3.05
2023-01-03T05:33:28.192Z,3.01
2023-01-03T05:35:29.648Z,3.01
2023-01-03T05:37:31.142Z,3.00
2023-01-03T05:39:32.589Z,2.99
2023-01-03T05:41:52.373Z,2.99
2023-01-03T05:43:53.820Z,3.02
2023-01-03T05:45:55.319Z,3.05
2023-01-03T05:47:57.509Z,3.06
2023-01-03T05:49:58.957Z,3.09
2023-01-03T05:52:00.441Z,3.09
2023-01-03T05:54:01.978Z,3.11
2023-01-03T05:56:06.988Z,3.12
2023-01-03T05:58:09.978Z,3.13
2023-01-03T06:00:12.235Z,3.14
2023-01-03T06:02:13.806Z,3.15
2023-01-03T06:04:15.440Z,3.17
2023-01-03T06:06:17.140Z,3.16
2023-01-03T06:08:18.662Z,3.16
2023-01-03T06:10:20.164Z,3.15
2023-01-03T06:12:21.714Z,3.13
2023-01-03T06:14:23.187Z,3.13
2023-01-03T06:16:43.872Z,3.13
2023-01-03T06:18:45.477Z,3.12
2023-01-03T06:20:46.968Z,3.13
2023-01-03T06:22:48.561Z,3.11
2023-01-03T06:24:50.077Z,3.11
2023-01-03T06:26:51.535Z,3.12
2023-01-03T06:28:53.291Z,3.12
2023-01-03T06:30:55.473Z,3.14
2023-01-03T06:32:56.975Z,3.15
2023-01-03T06:34:58.423Z,3.17
2023-01-03T06:36:59.889Z,3.16
2023-01-03T06:39:01.472Z,3.19
2023-01-03T06:41:03.783Z,3.21
2023-01-03T06:43:05.341Z,3.24
2023-01-03T06:45:25.863Z,3.27
2023-01-03T06:47:45.972Z,3.27
2023-01-03T06:50:05.662Z,3.31
2023-01-03T06:52:32.765Z,3.35
2023-01-03T06:54:36.685Z,3.37
2023-01-03T06:56:38.136Z,3.39
2023-01-03T06:58:39.618Z,3.41
2023-01-03T07:00:44.217Z,3.41
2023-01-03T07:02:45.751Z,3.42
2023-01-03T07:04:47.319Z,3.42
2023-01-03T07:06:48.910Z,3.43
2023-01-03T07:08:51.436Z,3.45
2023-01-03T07:10:54.521Z,3.45
2023-01-03T07:13:14.594Z,3.46
2023-01-03T07:15:16.036Z,3.48
2023-01-03T07:17:17.999Z,3.50
2023-01-03T07:19:20.081Z,3.50
2023-01-03T07:21:25.968Z,3.51
2023-01-03T07:23:27.453Z,3.51
2023-01-03T07:25:28.950Z,3.51
2023-01-03T07:27:30.401Z,3.52
2023-01-03T07:29:31.904Z,3.52
2023-01-03T07:31:34.628Z,3.51
2023-01-03T07:33:39.083Z,3.51
2023-01-03T07:35:40.729Z,3.50
2023-01-03T07:37:42.218Z,3.48
2023-01-03T07:39:43.697Z,3.47
2023-01-03T07:42:03.653Z,3.47
2023-01-03T07:44:05.121Z,3.47
2023-01-03T07:46:24.204Z,3.49
2023-01-03T07:48:25.765Z,3.51
2023-01-03T07:50:27.234Z,3.53
2023-01-03T07:52:28.726Z,3.51
2023-01-03T07:54:30.232Z,3.51
2023-01-03T07:56:31.752Z,3.51
2023-01-03T07:58:33.724Z,3.50
2023-01-03T08:00:35.216Z,3.52
2023-01-03T08:02:36.743Z,3.54
2023-01-03T08:04:38.345Z,3.53
2023-01-03T08:06:40.330Z,3.52
2023-01-03T08:08:42.625Z,3.52
2023-01-03T08:11:02.584Z,3.52
2023-01-03T08:13:19.914Z,3.51
2023-01-03T08:15:21.921Z,3.48
2023-01-03T08:17:23.356Z,3.47
2023-01-03T08:19:25.325Z,3.46
2023-01-03T08:21:26.768Z,3.49
2023-01-03T08:23:30.064Z,3.50
2023-01-03T08:25:31.599Z,3.52
2023-01-03T08:27:33.060Z,3.53
2023-01-03T08:29:34.549Z,3.55
2023-01-03T08:31:40.477Z,3.56
2023-01-03T08:33:48.988Z,3.57
2023-01-03T08:35:58.253Z,3.53
2023-01-03T08:38:04.374Z,3.53
2023-01-03T08:40:06.553Z,3.51
2023-01-03T08:42:09.766Z,3.51
2023-01-03T08:44:11.960Z,3.46
2023-01-03T08:46:16.221Z,3.47
2023-01-03T08:48:20.799Z,3.46
2023-01-03T08:50:22.326Z,3.45
2023-01-03T08:52:23.964Z,3.45
2023-01-03T08:54:25.495Z,3.47
2023-01-03T08:56:27.056Z,3.49
2023-01-03T08:58:28.558Z,3.47
2023-01-03T09:00:30.063Z,3.44
2023-01-03T09:02:34.528Z,3.43
2023-01-03T09:04:36.489Z,3.40
2023-01-03T09:06:38.214Z,3.34
2023-01-03T09:08:39.708Z,3.31
2023-01-03T09:10:47.175Z,3.29
2023-01-03T09:12:48.883Z,3.24
2023-01-03T09:14:50.440Z,3.20
2023-01-03T09:16:51.978Z,3.17
2023-01-03T09:18:53.504Z,3.14
2023-01-03T09:20:55.022Z,3.15
2023-01-03T09:22:56.481Z,3.15
2023-01-03T09:24:58.008Z,3.15
2023-01-03T09:27:00.173Z,3.19
2023-01-03T09:29:01.968Z,3.21
2023-01-03T09:31:04.050Z,3.21
2023-01-03T09:33:05.834Z,3.24
2023-01-03T09:35:08.293Z,3.25
2023-01-03T09:37:09.927Z,3.25
2023-01-03T09:39:11.448Z,3.28
2023-01-03T09:41:21.914Z,3.30
2023-01-03T09:43:29.273Z,3.35
2023-01-03T09:45:34.030Z,3.42
2023-01-03T09:47:38.388Z,3.46
2023-01-03T09:49:57.691Z,3.49
2023-01-03T09:52:20.395Z,3.51
2023-01-03T09:54:54.182Z,3.57
2023-01-03T09:57:14.504Z,3.58
2023-01-03T09:59:37.000Z,3.61
2023-01-03T10:02:25.103Z,3.63
2023-01-03T10:04:48.637Z,3.69
2023-01-03T10:07:18.399Z,3.75
2023-01-03T10:09:32.693Z,3.80
2023-01-03T10:12:04.923Z,3.84
2023-01-03T10:14:40.363Z,3.87
2023-01-03T10:16:55.307Z,3.91
2023-01-03T10:19:11.943Z,3.93
2023-01-03T10:21:36.381Z,3.96
2023-01-03T10:23:37.902Z,4.01
2023-01-03T10:25:41.680Z,4.05
2023-01-03T10:27:51.355Z,4.12
2023-01-03T10:29:59.845Z,4.16
2023-01-03T10:32:34.780Z,4.20
2023-01-03T10:34:38.625Z,4.26
2023-01-03T10:36:40.144Z,4.33
2023-01-03T10:38:49.364Z,4.37
2023-01-03T10:40:55.637Z,4.42
2023-01-03T10:42:57.129Z,4.46
2023-01-03T10:45:10.437Z,4.49
2023-01-03T10:47:17.199Z,4.53
2023-01-03T10:49:30.131Z,4.55
2023-01-03T10:51:43.180Z,4.57
2023-01-03T10:53:44.844Z,4.66
2023-01-03T10:55:52.321Z,4.71
2023-01-03T10:57:56.523Z,4.78
2023-01-03T10:59:58.022Z,4.80
2023-01-03T11:02:16.679Z,4.79
2023-01-03T11:04:19.947Z,4.79
2023-01-03T11:06:21.600Z,4.87
2023-01-03T11:08:45.363Z,4.94
2023-01-03T11:11:00.052Z,5.02
2023-01-03T11:13:01.563Z,5.05
2023-01-03T11:15:37.899Z,5.30
2023-01-03T11:17:52.810Z,5.64
2023-01-03T11:19:55.387Z,6.23
2023-01-03T11:22:06.887Z,6.78
2023-01-03T11:24:31.485Z,7.29
2023-01-03T11:26:48.953Z,7.28
2023-01-03T11:29:08.176Z,6.95
2023-01-03T11:31:26.582Z,6.61
2023-01-03T11:33:37.162Z,6.45
2023-01-03T11:35:59.145Z,6.28
2023-01-03T11:38:20.176Z,6.27
2023-01-03T11:40:21.596Z,6.23
2023-01-03T11:42:45.014Z,6.16
2023-01-03T11:45:20.037Z,6.13
2023-01-03T11:47:30.591Z,6.07
2023-01-03T11:50:14.515Z,6.08
2023-01-03T11:52:27.911Z,6.12
2023-01-03T11:54:53.156Z,6.11
2023-01-03T11:56:58.538Z,6.06
2023-01-03T11:59:27.931Z,5.98
2023-01-03T12:02:07.253Z,5.94
2023-01-03T12:04:26.548Z,5.87
2023-01-03T12:07:14.220Z,5.81
2023-01-03T12:09:22.321Z,5.79
2023-01-03T12:11:36.630Z,5.83
2023-01-03T12:13:53.369Z,5.83
2023-01-03T12:16:20.843Z,5.81
2023-01-03T12:18:28.708Z,5.84
2023-01-03T12:20:38.740Z,5.89
2023-01-03T12:22:47.942Z,5.99
2023-01-03T12:25:02.557Z,6.11
2023-01-03T12:27:23.648Z,6.26
2023-01-03T12:29:29.065Z,6.33
2023-01-03T12:31:47.519Z,6.33
2023-01-03T12:33:54.443Z,6.35
2023-01-03T12:36:33.179Z,6.30
2023-01-03T12:38:45.000Z,6.32
2023-01-03T12:40:46.392Z,6.34
2023-01-03T12:43:12.008Z,6.32
2023-01-03T12:45:29.658Z,6.30
2023-01-03T12:47:49.882Z,6.31
2023-01-03T12:50:01.718Z,6.34
2023-01-03T12:52:03.244Z,6.33
2023-01-03T12:54:22.964Z,6.32
2023-01-03T12:56:30.461Z,6.33
2023-01-03T12:58:39.820Z,6.37
2023-01-03T13:00:58.609Z,6.44
2023-01-03T13:03:41.482Z,6.43
2023-01-03T13:05:50.918Z,6.43
2023-01-03T13:08:32.905Z,6.45
2023-01-03T13:10:38.391Z,6.45
2023-01-03T13:12:43.604Z,6.45
2023-01-03T13:15:07.658Z,6.49
2023-01-03T13:17:18.102Z,6.52
2023-01-03T13:19:22.605Z,6.54
2023-01-03T13:21:49.891Z,6.57
2023-01-03T13:23:59.312Z,6.57
2023-01-03T13:26:06.886Z,6.56
2023-01-03T13:28:29.862Z,6.51
2023-01-03T13:30:34.922Z,6.47
2023-01-03T13:33:11.978Z,6.39
2023-01-03T13:35:16.148Z,6.39
2023-01-03T13:37:18.748Z,6.40
2023-01-03T13:39:40.204Z,6.43
2023-01-03T13:41:41.772Z,6.43
2023-01-03T13:43:47.206Z,6.45
2023-01-03T13:45:50.416Z,6.48
2023-01-03T13:47:54.284Z,6.48
2023-01-03T13:49:55.810Z,6.49
2023-01-03T13:51:58.685Z,6.50
2023-01-03T13:54:01.744Z,6.51
2023-01-03T13:56:15.093Z,6.48
2023-01-03T13:58:40.250Z,6.45
2023-01-03T14:00:41.927Z,6.47
2023-01-03T14:03:05.673Z,6.47
2023-01-03T14:05:30.373Z,6.48
2023-01-03T14:07:37.578Z,6.44
2023-01-03T14:10:01.809Z,6.39
2023-01-03T14:12:48.337Z,6.38
2023-01-03T14:14:55.448Z,6.36
2023-01-03T14:16:58.684Z,6.38
2023-01-03T14:19:22.867Z,6.38
2023-01-03T14:21:31.151Z,6.40
2023-01-03T14:23:59.746Z,6.41
2023-01-03T14:26:04.674Z,6.41
2023-01-03T14:28:20.703Z,6.40
2023-01-03T14:30:28.326Z,6.39
2023-01-03T14:32:35.960Z,6.42
2023-01-03T14:34:41.206Z,6.44
2023-01-03T14:36:47.187Z,6.45
2023-01-03T14:38:54.721Z,6.46
2023-01-03T14:41:00.134Z,6.47
2023-01-03T14:43:05.107Z,6.48
2023-01-03T14:45:08.756Z,6.49
2023-01-03T14:47:17.561Z,6.51
2023-01-03T14:49:45.013Z,6.50
2023-01-03T14:51:46.891Z,6.48
2023-01-03T14:53:49.984Z,6.48
2023-01-03T14:55:53.857Z,6.51
2023-01-03T14:57:56.904Z,6.51
2023-01-03T15:00:00.793Z,6.52
2023-01-03T15:02:02.771Z,6.50
2023-01-03T15:04:05.208Z,6.50
2023-01-03T15:06:25.043Z,6.48
2023-01-03T15:08:31.521Z,6.47
2023-01-03T15:10:43.575Z,6.46
2023-01-03T15:12:57.564Z,6.49
2023-01-03T15:15:19.746Z,6.52
2023-01-03T15:17:26.303Z,6.55
2023-01-03T15:19:30.355Z,6.57
2023-01-03T15:21:32.088Z,6.57
2023-01-03T15:23:37.063Z,6.58
2023-01-03T15:25:41.492Z,6.59
2023-01-03T15:27:45.315Z,6.58
2023-01-03T15:29:46.828Z,6.60
2023-01-03T15:31:58.504Z,6.61
2023-01-03T15:34:19.572Z,6.61
2023-01-03T15:36:26.406Z,6.62
2023-01-03T15:38:37.101Z,6.63
2023-01-03T15:40:39.963Z,6.63
2023-01-03T15:43:02.614Z,6.64
2023-01-03T15:45:21.300Z,6.64
2023-01-03T15:47:25.148Z,6.64
2023-01-03T15:49:28.473Z,6.64
2023-01-03T15:51:29.957Z,6.63
2023-01-03T15:53:43.246Z,6.65
2023-01-03T15:55:45.922Z,6.66
2023-01-03T15:57:53.758Z,6.67
2023-01-03T15:59:57.699Z,6.66
2023-01-03T16:01:59.507Z,6.69
2023-01-03T16:04:01.088Z,6.69
2023-01-03T16:06:02.988Z,6.71
2023-01-03T16:08:15.654Z,6.72
2023-01-03T16:10:17.338Z,6.73
2023-01-03T16:12:43.913Z,6.74
2023-01-03T16:14:49.309Z,6.75
2023-01-03T16:16:53.408Z,6.74
2023-01-03T16:18:55.698Z,6.74
2023-01-03T16:20:57.264Z,6.74
2023-01-03T16:23:01.784Z,6.74
2023-01-03T16:25:05.541Z,6.74
2023-01-03T16:27:16.822Z,6.75
2023-01-03T16:29:18.505Z,6.76
2023-01-03T16:31:31.934Z,6.76
2023-01-03T16:33:35.761Z,6.77
2023-01-03T16:35:37.279Z,6.75
2023-01-03T16:37:38.764Z,6.75
2023-01-03T16:39:47.399Z,6.74
2023-01-03T16:42:10.276Z,6.74
2023-01-03T16:44:11.807Z,6.73
2023-01-03T16:46:15.929Z,6.71
2023-01-03T16:48:20.921Z,6.71
2023-01-03T16:50:22.896Z,6.70
2023-01-03T16:52:27.962Z,6.69
2023-01-03T16:54:30.258Z,6.69
2023-01-03T16:56:31.716Z,6.67
2023-01-03T16:58:33.354Z,6.66
2023-01-03T17:00:35.553Z,6.63
2023-01-03T17:02:37.148Z,6.60
2023-01-03T17:04:38.860Z,6.57
2023-01-03T17:06:41.156Z,6.53
2023-01-03T17:08:42.942Z,6.51
2023-01-03T17:10:47.044Z,6.48
2023-01-03T17:12:48.616Z,6.46
2023-01-03T17:14:51.121Z,6.44
2023-01-03T17:16:52.642Z,6.40
2023-01-03T17:18:55.971Z,6.40
2023-01-03T17:21:06.841Z,6.41
2023-01-03T17:23:09.135Z,6.39
2023-01-03T17:25:11.578Z,6.36
2023-01-03T17:27:25.053Z,6.35
2023-01-03T17:29:31.425Z,6.33
2023-01-03T17:31:33.169Z,6.34
2023-01-03T17:33:34.695Z,6.34
2023-01-03T17:35:38.478Z,6.35
2023-01-03T17:38:05.669Z,6.36
2023-01-03T17:40:01.890Z,6.37
2023-01-03T17:42:18.988Z,6.40
2023-01-03T17:44:20.481Z,6.42
2023-01-03T17:46:43.244Z,6.45
2023-01-03T17:49:03.116Z,6.46
2023-01-03T17:51:04.718Z,6.47
2023-01-03T17:53:08.553Z,6.46
2023-01-03T17:55:25.710Z,6.45
2023-01-03T17:57:28.095Z,6.41
2023-01-03T17:59:29.712Z,6.40
2023-01-03T18:01:31.337Z,6.39
2023-01-03T18:03:32.961Z,6.36
2023-01-03T18:05:34.631Z,6.31
2023-01-03T18:07:36.193Z,6.29
2023-01-03T18:09:37.863Z,6.26
2023-01-03T18:11:39.330Z,6.22
2023-01-03T18:13:40.897Z,6.17
2023-01-03T18:15:42.388Z,6.13
2023-01-03T18:17:44.987Z,6.10
2023-01-03T18:19:46.437Z,6.06
2023-01-03T18:21:48.281Z,6.05
2023-01-03T18:24:02.503Z,5.99
2023-01-03T18:26:06.710Z,5.94
2023-01-03T18:28:10.333Z,5.91
2023-01-03T18:30:15.846Z,5.88
2023-01-03T18:32:23.247Z,5.88
2023-01-03T18:34:24.814Z,5.86
2023-01-03T18:36:29.165Z,5.82
2023-01-03T18:38:35.516Z,5.81
2023-01-03T18:40:38.079Z,5.78
2023-01-03T18:42:58.445Z,5.77
2023-01-03T18:44:59.963Z,5.74
2023-01-03T18:47:01.761Z,5.71
2023-01-03T18:49:03.283Z,5.70
2023-01-03T18:51:05.011Z,5.67
2023-01-03T18:53:06.546Z,5.65
2023-01-03T18:55:15.154Z,5.63
2023-01-03T18:57:16.633Z,5.63
2023-01-03T18:59:26.670Z,5.62
2023-01-03T19:01:28.322Z,5.61
2023-01-03T19:03:32.059Z,5.61
2023-01-03T19:05:33.637Z,5.62
2023-01-03T19:07:35.984Z,5.60
2023-01-03T19:09:37.579Z,5.60
2023-01-03T19:11:39.848Z,5.59
2023-01-03T19:13:54.512Z,5.58
2023-01-03T19:15:56.832Z,5.57
2023-01-03T19:17:58.428Z,5.57
2023-01-03T19:19:59.972Z,5.56
2023-01-03T19:22:01.908Z,5.57
2023-01-03T19:24:29.726Z,5.59
2023-01-03T19:26:39.923Z,5.60
2023-01-03T19:28:41.655Z,5.58
2023-01-03T19:30:46.464Z,5.56
2023-01-03T19:32:52.580Z,5.55
2023-01-03T19:34:54.230Z,5.53
2023-01-03T19:36:55.817Z,5.52
2023-01-03T19:38:57.365Z,5.56
2023-01-03T19:40:59.026Z,5.59
2023-01-03T19:43:00.767Z,5.65
2023-01-03T19:45:13.468Z,5.71
2023-01-03T19:47:18.190Z,5.73
2023-01-03T19:49:20.853Z,5.76
2023-01-03T19:51:22.310Z,5.77
2023-01-03T19:53:23.794Z,5.82
2023-01-03T19:55:29.138Z,5.84
2023-01-03T19:57:33.792Z,5.87
2023-01-03T19:59:38.199Z,5.88
2023-01-03T20:02:14.372Z,5.92
2023-01-03T20:04:02.370Z,5.96
2023-01-03T20:06:04.701Z,5.97
2023-01-03T20:08:12.022Z,6.02
2023-01-03T20:10:16.887Z,6.05
2023-01-03T20:12:26.839Z,6.07
2023-01-03T20:14:28.921Z,6.08
2023-01-03T20:16:30.437Z,6.09
2023-01-03T20:18:36.208Z,6.11
2023-01-03T20:20:38.130Z,6.14
2023-01-03T20:25:01.892Z,6.17
2023-01-03T20:27:03.756Z,6.19
2023-01-03T20:29:05.526Z,6.22
2023-01-03T20:31:08.372Z,6.23
2023-01-03T20:33:09.899Z,6.25
2023-01-03T20:36:06.590Z,6.26
2023-01-03T20:37:37.668Z,6.24
2023-01-03T20:39:39.163Z,6.26
2023-01-03T20:41:40.653Z,6.25
2023-01-03T20:43:43.381Z,6.27
2023-01-03T20:45:46.247Z,6.26
2023-01-03T20:47:54.251Z,6.26
2023-01-03T20:49:55.769Z,6.26
2023-01-03T20:51:57.343Z,6.25
2023-01-03T20:53:58.822Z,6.24
2023-01-03T20:56:00.285Z,6.22
2023-01-03T20:58:01.949Z,6.21
2023-01-03T21:00:05.138Z,6.22
2023-01-03T21:02:06.954Z,6.22
2023-01-03T21:04:08.642Z,6.24
2023-01-03T21:06:21.887Z,6.26
2023-01-03T21:08:41.649Z,6.27
2023-01-03T21:10:44.111Z,6.35
2023-01-03T21:12:45.680Z,6.37
2023-01-03T21:14:49.509Z,6.38
2023-01-03T21:16:51.151Z,6.38
2023-01-03T21:18:52.807Z,6.40
2023-01-03T21:20:54.318Z,6.40
2023-01-03T21:22:56.061Z,6.42
2023-01-03T21:24:58.016Z,6.45
2023-01-03T21:26:59.552Z,6.47
2023-01-03T21:29:01.132Z,6.50
2023-01-03T21:31:05.374Z,6.52
2023-01-03T21:33:15.966Z,6.53
2023-01-03T21:35:22.717Z,6.53
2023-01-03T21:37:24.229Z,6.54
2023-01-03T21:39:25.693Z,6.58
2023-01-03T21:41:30.030Z,6.59
2023-01-03T21:43:31.548Z,6.63
2023-01-03T21:45:38.156Z,6.67
2023-01-03T21:47:39.833Z,6.70
2023-01-03T21:49:41.338Z,6.70
2023-01-03T21:51:42.773Z,6.72
2023-01-03T21:53:44.494Z,6.74
2023-01-03T21:55:46.885Z,6.72
2023-01-03T21:57:48.537Z,6.74
2023-01-03T21:59:50.011Z,6.72
2023-01-03T22:02:09.893Z,6.72
2023-01-03T22:04:17.238Z,6.71
2023-01-03T22:06:18.751Z,6.71
2023-01-03T22:08:20.214Z,6.74
2023-01-03T22:10:23.721Z,6.72
2023-01-03T22:12:25.191Z,6.70
2023-01-03T22:14:26.686Z,6.70
2023-01-03T22:16:28.333Z,6.71
2023-01-03T22:18:29.831Z,6.73
2023-01-03T22:20:38.048Z,6.74
2023-01-03T22:22:40.452Z,6.72
2023-01-03T22:24:41.989Z,6.72
2023-01-03T22:26:43.455Z,6.73
2023-01-03T22:28:46.391Z,6.74
2023-01-03T22:30:47.829Z,6.77
2023-01-03T22:32:49.472Z,6.76
2023-01-03T22:34:50.991Z,6.74
2023-01-03T22:36:52.456Z,6.71
2023-01-03T22:38:53.948Z,6.68
2023-01-03T22:40:55.396Z,6.68
2023-01-03T22:42:56.862Z,6.66
2023-01-03T22:44:58.330Z,6.66
2023-01-03T22:46:59.872Z,6.65
2023-01-03T22:49:01.385Z,6.62
2023-01-03T22:51:04.798Z,6.61
2023-01-03T22:53:06.883Z,6.62
2023-01-03T22:55:08.590Z,6.60
2023-01-03T22:57:10.048Z,6.61
2023-01-03T22:59:11.596Z,6.65
2023-01-03T23:01:17.963Z,6.68
2023-01-03T23:03:19.519Z,6.66
2023-01-03T23:05:20.975Z,6.66
2023-01-03T23:07:22.435Z,6.66
2023-01-03T23:09:24.132Z,6.67
2023-01-03T23:11:46.153Z,6.69
2023-01-03T23:13:47.637Z,6.73
2023-01-03T23:15:49.312Z,6.72
2023-01-03T23:17:56.925Z,6.73
2023-01-03T23:19:58.414Z,6.75
2023-01-03T23:21:59.935Z,6.77
2023-01-03T23:24:01.583Z,6.77
2023-01-03T23:26:03.924Z,6.77
2023-01-03T23:28:05.438Z,6.78
2023-01-03T23:30:07.544Z,6.80
2023-01-03T23:32:09.018Z,6.79
2023-01-03T23:34:11.592Z,6.77
2023-01-03T23:36:14.201Z,6.78
2023-01-03T23:38:15.794Z,6.78
2023-01-03T23:40:17.424Z,6.77
2023-01-03T23:42:18.923Z,6.77
2023-01-03T23:44:20.409Z,6.78
2023-01-03T23:46:24.291Z,6.76
2023-01-03T23:48:25.790Z,6.76
2023-01-03T23:50:27.280Z,6.77
2023-01-03T23:52:28.721Z,6.75
2023-01-03T23:54:30.217Z,6.74
2023-01-03T23:56:31.708Z,6.76
2023-01-03T23:58:33.253Z,6.77
